EWG31AP EDDF-EDDM
Flight info
| Callsign | EWG31AP |
|---|---|
| Flight time | 0h 37m |
| Altitude | 23000 |
| Route | CINDY8S/18 CINDY Z74 HAREM T104 ROKIL |
| Aircraft | A320/M-SDE3FGHIRWY/LB1 |
Departure
| Time | 2026-05-07 19:26 |
|---|---|
| Airport | Frankfurt Main Airport (EDDF) |
Arrival
| Time | 2026-05-07 20:04 |
|---|---|
| Airport | Munich Airport (EDDM) |
| Time | Latitude | Longitude | Altitude | Speed | Heading |
|---|---|---|---|---|---|
| 2026-05-07 18:57 | 50.03867 | 8.54787 | 361 ft | 0 kts | 160° |
| 2026-05-07 18:58 | 50.03845 | 8.54693 | 353 ft | 0 kts | 160° |
| 2026-05-07 19:21 | 50.03843 | 8.54694 | 349 ft | 1 kts | 160° |
| 2026-05-07 19:21 | 50.03825 | 8.54705 | 352 ft | 4 kts | 160° |
| 2026-05-07 19:21 | 50.03796 | 8.54722 | 348 ft | 5 kts | 160° |
| 2026-05-07 19:21 | 50.03763 | 8.54722 | 350 ft | 5 kts | 211° |
| 2026-05-07 19:22 | 50.03739 | 8.54656 | 349 ft | 10 kts | 249° |
| 2026-05-07 19:22 | 50.03713 | 8.54545 | 349 ft | 12 kts | 250° |
| 2026-05-07 19:22 | 50.03681 | 8.54413 | 351 ft | 14 kts | 249° |
| 2026-05-07 19:22 | 50.03650 | 8.54282 | 350 ft | 12 kts | 249° |
| 2026-05-07 19:23 | 50.03621 | 8.54163 | 352 ft | 11 kts | 249° |
| 2026-05-07 19:23 | 50.03582 | 8.53999 | 337 ft | 21 kts | 250° |
| 2026-05-07 19:23 | 50.03532 | 8.53789 | 338 ft | 21 kts | 250° |
| 2026-05-07 19:23 | 50.03482 | 8.53580 | 338 ft | 20 kts | 249° |
| 2026-05-07 19:24 | 50.03434 | 8.53383 | 338 ft | 19 kts | 250° |
| 2026-05-07 19:24 | 50.03384 | 8.53173 | 335 ft | 21 kts | 249° |
| 2026-05-07 19:24 | 50.03333 | 8.52957 | 331 ft | 21 kts | 250° |
| 2026-05-07 19:24 | 50.03291 | 8.52784 | 332 ft | 12 kts | 249° |
| 2026-05-07 19:25 | 50.03263 | 8.52668 | 335 ft | 9 kts | 249° |
| 2026-05-07 19:25 | 50.03240 | 8.52607 | 331 ft | 5 kts | 218° |
| 2026-05-07 19:25 | 50.03209 | 8.52597 | 334 ft | 7 kts | 184° |
| 2026-05-07 19:25 | 50.03003 | 8.52599 | 332 ft | 64 kts | 179° |
| 2026-05-07 19:26 | 50.02328 | 8.52604 | 333 ft | 127 kts | 179° |
| 2026-05-07 19:26 | 50.01290 | 8.52614 | 363 ft | 171 kts | 180° |
| 2026-05-07 19:26 | 50.00154 | 8.52570 | 1126 ft | 159 kts | 179° |
| 2026-05-07 19:26 | 49.99037 | 8.52573 | 1771 ft | 164 kts | 177° |
| 2026-05-07 19:27 | 49.97854 | 8.52605 | 2245 ft | 176 kts | 177° |
| 2026-05-07 19:27 | 49.96665 | 8.53141 | 2699 ft | 186 kts | 142° |
| 2026-05-07 19:27 | 49.95812 | 8.54736 | 3048 ft | 201 kts | 114° |
| 2026-05-07 19:27 | 49.95159 | 8.56765 | 3428 ft | 220 kts | 116° |
| 2026-05-07 19:28 | 49.94411 | 8.58924 | 4042 ft | 230 kts | 114° |
| 2026-05-07 19:28 | 49.93974 | 8.61359 | 4644 ft | 244 kts | 94° |
| 2026-05-07 19:28 | 49.93839 | 8.64088 | 5161 ft | 263 kts | 92° |
| 2026-05-07 19:28 | 49.93685 | 8.66960 | 5918 ft | 272 kts | 101° |
| 2026-05-07 19:29 | 49.92976 | 8.69679 | 6811 ft | 276 kts | 122° |
| 2026-05-07 19:29 | 49.91684 | 8.71914 | 7539 ft | 282 kts | 143° |
| 2026-05-07 19:29 | 49.90072 | 8.73663 | 8437 ft | 284 kts | 146° |
| 2026-05-07 19:29 | 49.88562 | 8.75661 | 9313 ft | 287 kts | 132° |
| 2026-05-07 19:30 | 49.87401 | 8.78230 | 10069 ft | 295 kts | 118° |
| 2026-05-07 19:30 | 49.86406 | 8.81027 | 10623 ft | 308 kts | 119° |
| 2026-05-07 19:30 | 49.85346 | 8.83970 | 11219 ft | 318 kts | 120° |
| 2026-05-07 19:30 | 49.84230 | 8.87062 | 11487 ft | 341 kts | 120° |
| 2026-05-07 19:31 | 49.83043 | 8.90357 | 11865 ft | 356 kts | 120° |
| 2026-05-07 19:31 | 49.81824 | 8.93739 | 12525 ft | 362 kts | 120° |
| 2026-05-07 19:31 | 49.80583 | 8.97165 | 13242 ft | 366 kts | 120° |
| 2026-05-07 19:31 | 49.79327 | 9.00616 | 13951 ft | 370 kts | 120° |
| 2026-05-07 19:32 | 49.78050 | 9.04105 | 14590 ft | 374 kts | 120° |
| 2026-05-07 19:32 | 49.76785 | 9.07634 | 15209 ft | 378 kts | 116° |
| 2026-05-07 19:32 | 49.75835 | 9.11451 | 15811 ft | 383 kts | 106° |
| 2026-05-07 19:32 | 49.75138 | 9.15442 | 16409 ft | 387 kts | 109° |
| 2026-05-07 19:33 | 49.74461 | 9.17999 | 16804 ft | 389 kts | 117° |
| 2026-05-07 19:33 | 49.72486 | 9.22694 | 17600 ft | 392 kts | 131° |
| 2026-05-07 19:33 | 49.71292 | 9.24800 | 17995 ft | 394 kts | 133° |
| 2026-05-07 19:33 | 49.69470 | 9.27996 | 18559 ft | 398 kts | 133° |
| 2026-05-07 19:34 | 49.67639 | 9.31211 | 19075 ft | 401 kts | 133° |
| 2026-05-07 19:34 | 49.65794 | 9.34459 | 19591 ft | 404 kts | 132° |
| 2026-05-07 19:34 | 49.63932 | 9.37733 | 20100 ft | 407 kts | 132° |
| 2026-05-07 19:34 | 49.62058 | 9.41030 | 20611 ft | 410 kts | 132° |
| 2026-05-07 19:35 | 49.60175 | 9.44346 | 21112 ft | 412 kts | 132° |
| 2026-05-07 19:35 | 49.58280 | 9.47681 | 21606 ft | 415 kts | 132° |
| 2026-05-07 19:35 | 49.56367 | 9.51047 | 22056 ft | 419 kts | 132° |
| 2026-05-07 19:35 | 49.54438 | 9.54438 | 22519 ft | 422 kts | 132° |
| 2026-05-07 19:36 | 49.52494 | 9.57847 | 22953 ft | 425 kts | 132° |
| 2026-05-07 19:36 | 49.50532 | 9.61277 | 23068 ft | 430 kts | 132° |
| 2026-05-07 19:36 | 49.48524 | 9.64785 | 23080 ft | 443 kts | 132° |
| 2026-05-07 19:36 | 49.46456 | 9.68390 | 23079 ft | 455 kts | 132° |
| 2026-05-07 19:37 | 49.44343 | 9.72068 | 23078 ft | 464 kts | 132° |
| 2026-05-07 19:37 | 49.42195 | 9.75803 | 23082 ft | 467 kts | 132° |
| 2026-05-07 19:37 | 49.40044 | 9.79538 | 23083 ft | 467 kts | 132° |
| 2026-05-07 19:37 | 49.38255 | 9.82643 | 23084 ft | 468 kts | 132° |
| 2026-05-07 19:38 | 49.37055 | 9.84725 | 23085 ft | 468 kts | 132° |
| 2026-05-07 19:38 | 49.34893 | 9.88472 | 23084 ft | 468 kts | 133° |
| 2026-05-07 19:38 | 49.32872 | 9.91967 | 23084 ft | 468 kts | 133° |
| 2026-05-07 19:39 | 49.32212 | 9.93106 | 23084 ft | 468 kts | 133° |
| 2026-05-07 19:39 | 49.30047 | 9.96832 | 23073 ft | 469 kts | 133° |
| 2026-05-07 19:39 | 49.27875 | 10.00565 | 23068 ft | 469 kts | 133° |
| 2026-05-07 19:39 | 49.25701 | 10.04294 | 23066 ft | 469 kts | 133° |
| 2026-05-07 19:40 | 49.23525 | 10.08022 | 23066 ft | 469 kts | 133° |
| 2026-05-07 19:40 | 49.21348 | 10.11744 | 23065 ft | 469 kts | 133° |
| 2026-05-07 19:40 | 49.19169 | 10.15466 | 23075 ft | 470 kts | 133° |
| 2026-05-07 19:40 | 49.16986 | 10.19188 | 23076 ft | 470 kts | 133° |
| 2026-05-07 19:41 | 49.14809 | 10.22899 | 23073 ft | 470 kts | 134° |
| 2026-05-07 19:41 | 49.12645 | 10.26550 | 23071 ft | 470 kts | 134° |
| 2026-05-07 19:41 | 49.10391 | 10.30247 | 23085 ft | 470 kts | 135° |
| 2026-05-07 19:41 | 49.08138 | 10.33862 | 23087 ft | 470 kts | 135° |
| 2026-05-07 19:42 | 49.05875 | 10.37450 | 23087 ft | 470 kts | 136° |
| 2026-05-07 19:42 | 49.03604 | 10.41036 | 23076 ft | 470 kts | 136° |
| 2026-05-07 19:42 | 49.01338 | 10.44622 | 23044 ft | 471 kts | 136° |
| 2026-05-07 19:42 | 48.99068 | 10.48226 | 22631 ft | 469 kts | 136° |
| 2026-05-07 19:43 | 48.96819 | 10.51811 | 22198 ft | 466 kts | 135° |
| 2026-05-07 19:43 | 48.94584 | 10.55375 | 21767 ft | 464 kts | 135° |
| 2026-05-07 19:43 | 48.92369 | 10.58909 | 21356 ft | 461 kts | 135° |
| 2026-05-07 19:43 | 48.90160 | 10.62434 | 20947 ft | 459 kts | 135° |
| 2026-05-07 19:44 | 48.87958 | 10.65941 | 20533 ft | 457 kts | 136° |
| 2026-05-07 19:44 | 48.85786 | 10.69395 | 20134 ft | 455 kts | 136° |
| 2026-05-07 19:44 | 48.83603 | 10.72855 | 19729 ft | 452 kts | 136° |
| 2026-05-07 19:44 | 48.81428 | 10.76289 | 19339 ft | 450 kts | 136° |
| 2026-05-07 19:45 | 48.79258 | 10.79700 | 18934 ft | 447 kts | 136° |
| 2026-05-07 19:45 | 48.77107 | 10.83072 | 18548 ft | 443 kts | 136° |
| 2026-05-07 19:45 | 48.74963 | 10.86423 | 18140 ft | 440 kts | 136° |
| 2026-05-07 19:45 | 48.72838 | 10.89740 | 17699 ft | 437 kts | 136° |
| 2026-05-07 19:46 | 48.70728 | 10.93035 | 17273 ft | 435 kts | 136° |
| 2026-05-07 19:46 | 48.68627 | 10.96315 | 17051 ft | 433 kts | 136° |
| 2026-05-07 19:46 | 48.66527 | 10.99586 | 17088 ft | 434 kts | 136° |
| 2026-05-07 19:46 | 48.64418 | 11.02871 | 17082 ft | 434 kts | 136° |
| 2026-05-07 19:47 | 48.62317 | 11.06142 | 17083 ft | 434 kts | 136° |
| 2026-05-07 19:47 | 48.60211 | 11.09416 | 17084 ft | 434 kts | 136° |
| 2026-05-07 19:47 | 48.58073 | 11.12587 | 17078 ft | 423 kts | 141° |
| 2026-05-07 19:47 | 48.55778 | 11.15160 | 17079 ft | 400 kts | 148° |
| 2026-05-07 19:48 | 48.53519 | 11.17451 | 17076 ft | 383 kts | 148° |
| 2026-05-07 19:48 | 48.51406 | 11.19664 | 17079 ft | 367 kts | 144° |
| 2026-05-07 19:48 | 48.49491 | 11.22154 | 17076 ft | 352 kts | 140° |
| 2026-05-07 19:48 | 48.47707 | 11.24569 | 17076 ft | 339 kts | 140° |
| 2026-05-07 19:49 | 48.45995 | 11.26968 | 17073 ft | 336 kts | 135° |
| 2026-05-07 19:49 | 48.44543 | 11.29665 | 17071 ft | 337 kts | 126° |
| 2026-05-07 19:49 | 48.43391 | 11.32741 | 17073 ft | 339 kts | 115° |
| 2026-05-07 19:49 | 48.42596 | 11.36085 | 17079 ft | 340 kts | 105° |
| 2026-05-07 19:50 | 48.42192 | 11.39595 | 17077 ft | 341 kts | 95° |
| 2026-05-07 19:50 | 48.42189 | 11.43158 | 17078 ft | 341 kts | 84° |
| 2026-05-07 19:50 | 48.42471 | 11.46698 | 17081 ft | 341 kts | 82° |
| 2026-05-07 19:50 | 48.42755 | 11.50247 | 17080 ft | 341 kts | 83° |
| 2026-05-07 19:51 | 48.43032 | 11.53790 | 17078 ft | 341 kts | 83° |
| 2026-05-07 19:51 | 48.43308 | 11.57332 | 17064 ft | 340 kts | 83° |
| 2026-05-07 19:51 | 48.43582 | 11.60870 | 16717 ft | 338 kts | 83° |
| 2026-05-07 19:51 | 48.43852 | 11.64355 | 16116 ft | 334 kts | 83° |
| 2026-05-07 19:52 | 48.44123 | 11.67827 | 15499 ft | 332 kts | 83° |
| 2026-05-07 19:52 | 48.44389 | 11.71264 | 14903 ft | 329 kts | 83° |
| 2026-05-07 19:52 | 48.44652 | 11.74680 | 14305 ft | 327 kts | 83° |
| 2026-05-07 19:52 | 48.44910 | 11.78077 | 13708 ft | 325 kts | 83° |
| 2026-05-07 19:53 | 48.45164 | 11.81401 | 13083 ft | 322 kts | 83° |
| 2026-05-07 19:53 | 48.45421 | 11.84743 | 12466 ft | 319 kts | 83° |
| 2026-05-07 19:53 | 48.45672 | 11.88048 | 11855 ft | 316 kts | 83° |
| 2026-05-07 19:53 | 48.45920 | 11.91327 | 11255 ft | 313 kts | 83° |
| 2026-05-07 19:54 | 48.46166 | 11.94567 | 10672 ft | 310 kts | 83° |
| 2026-05-07 19:54 | 48.46409 | 11.97784 | 10070 ft | 308 kts | 83° |
| 2026-05-07 19:54 | 48.46649 | 12.00979 | 9417 ft | 306 kts | 84° |
| 2026-05-07 19:54 | 48.46884 | 12.04153 | 8901 ft | 304 kts | 83° |
| 2026-05-07 19:55 | 48.47114 | 12.07280 | 8711 ft | 295 kts | 83° |
| 2026-05-07 19:55 | 48.47338 | 12.10303 | 8576 ft | 285 kts | 83° |
| 2026-05-07 19:55 | 48.47555 | 12.13220 | 8437 ft | 273 kts | 83° |
| 2026-05-07 19:55 | 48.47760 | 12.16008 | 8052 ft | 265 kts | 83° |
| 2026-05-07 19:56 | 48.47961 | 12.18745 | 7564 ft | 261 kts | 83° |
| 2026-05-07 19:56 | 48.48157 | 12.21448 | 7079 ft | 257 kts | 83° |
| 2026-05-07 19:56 | 48.48120 | 12.24110 | 6644 ft | 254 kts | 107° |
| 2026-05-07 19:56 | 48.47261 | 12.26363 | 6340 ft | 247 kts | 139° |
| 2026-05-07 19:57 | 48.45804 | 12.27614 | 6000 ft | 240 kts | 168° |
| 2026-05-07 19:57 | 48.44176 | 12.27770 | 5641 ft | 233 kts | 197° |
| 2026-05-07 19:57 | 48.42810 | 12.26636 | 5437 ft | 221 kts | 227° |
| 2026-05-07 19:57 | 48.41805 | 12.24881 | 5305 ft | 221 kts | 233° |
| 2026-05-07 19:58 | 48.40876 | 12.23032 | 5194 ft | 222 kts | 234° |
| 2026-05-07 19:58 | 48.39964 | 12.21158 | 5142 ft | 222 kts | 238° |
| 2026-05-07 19:58 | 48.39429 | 12.19012 | 5089 ft | 221 kts | 263° |
| 2026-05-07 19:58 | 48.39258 | 12.16712 | 5046 ft | 221 kts | 264° |
| 2026-05-07 19:59 | 48.39097 | 12.14412 | 4997 ft | 221 kts | 264° |
| 2026-05-07 19:59 | 48.38932 | 12.12143 | 4950 ft | 221 kts | 264° |
| 2026-05-07 19:59 | 48.38767 | 12.09891 | 4903 ft | 211 kts | 264° |
| 2026-05-07 19:59 | 48.38609 | 12.07754 | 4816 ft | 200 kts | 264° |
| 2026-05-07 20:00 | 48.38458 | 12.05711 | 4579 ft | 193 kts | 264° |
| 2026-05-07 20:00 | 48.38311 | 12.03731 | 4323 ft | 188 kts | 264° |
| 2026-05-07 20:00 | 48.38168 | 12.01801 | 4074 ft | 184 kts | 264° |
| 2026-05-07 20:00 | 48.38026 | 11.99904 | 3830 ft | 181 kts | 264° |
| 2026-05-07 20:01 | 48.37887 | 11.98043 | 3593 ft | 178 kts | 264° |
| 2026-05-07 20:01 | 48.37750 | 11.96207 | 3358 ft | 174 kts | 264° |
| 2026-05-07 20:01 | 48.37618 | 11.94444 | 3146 ft | 163 kts | 264° |
| 2026-05-07 20:01 | 48.37496 | 11.92822 | 2921 ft | 151 kts | 264° |
| 2026-05-07 20:02 | 48.37380 | 11.91279 | 2720 ft | 147 kts | 265° |
| 2026-05-07 20:02 | 48.37266 | 11.89763 | 2517 ft | 145 kts | 265° |
| 2026-05-07 20:02 | 48.37152 | 11.88260 | 2319 ft | 144 kts | 265° |
| 2026-05-07 20:02 | 48.37039 | 11.86764 | 2128 ft | 144 kts | 264° |
| 2026-05-07 20:03 | 48.36927 | 11.85276 | 1939 ft | 143 kts | 264° |
| 2026-05-07 20:03 | 48.36814 | 11.83792 | 1742 ft | 142 kts | 264° |
| 2026-05-07 20:03 | 48.36702 | 11.82320 | 1572 ft | 142 kts | 264° |
| 2026-05-07 20:03 | 48.36593 | 11.80885 | 1481 ft | 129 kts | 265° |
| 2026-05-07 20:04 | 48.36508 | 11.79770 | 1479 ft | 85 kts | 263° |
| 2026-05-07 20:04 | 48.36455 | 11.79117 | 1482 ft | 27 kts | 257° |
| 2026-05-07 20:04 | 48.36384 | 11.78874 | 1478 ft | 21 kts | 234° |
| 2026-05-07 20:04 | 48.36312 | 11.78729 | 1482 ft | 16 kts | 234° |
| 2026-05-07 20:05 | 48.36248 | 11.78602 | 1477 ft | 9 kts | 232° |
| 2026-05-07 20:05 | 48.36229 | 11.78563 | 1478 ft | 3 kts | 233° |
| 2026-05-07 20:05 | 48.36219 | 11.78544 | 1476 ft | 2 kts | 233° |
| 2026-05-07 20:05 | 48.36214 | 11.78533 | 1479 ft | 1 kts | 231° |
| 2026-05-07 20:06 | 48.36189 | 11.78514 | 1476 ft | 5 kts | 191° |
| 2026-05-07 20:06 | 48.36151 | 11.78547 | 1478 ft | 7 kts | 121° |
| 2026-05-07 20:06 | 48.36149 | 11.78633 | 1485 ft | 9 kts | 84° |
| 2026-05-07 20:06 | 48.36157 | 11.78730 | 1485 ft | 11 kts | 83° |
| 2026-05-07 20:07 | 48.36165 | 11.78835 | 1473 ft | 9 kts | 83° |
| 2026-05-07 20:07 | 48.36172 | 11.78924 | 1483 ft | 8 kts | 83° |
| 2026-05-07 20:07 | 48.36177 | 11.78996 | 1485 ft | 6 kts | 83° |
| 2026-05-07 20:07 | 48.36182 | 11.79059 | 1483 ft | 5 kts | 84° |
| 2026-05-07 20:08 | 48.36186 | 11.79112 | 1485 ft | 6 kts | 84° |
| 2026-05-07 20:08 | 48.36190 | 11.79176 | 1485 ft | 6 kts | 84° |
| 2026-05-07 20:08 | 48.36194 | 11.79245 | 1477 ft | 8 kts | 92° |
| 2026-05-07 20:08 | 48.36168 | 11.79301 | 1471 ft | 6 kts | 153° |
| 2026-05-07 20:09 | 48.36132 | 11.79306 | 1481 ft | 5 kts | 175° |
| 2026-05-07 20:09 | 48.36097 | 11.79312 | 1485 ft | 4 kts | 174° |
| 2026-05-07 20:09 | 48.36070 | 11.79317 | 1478 ft | 3 kts | 172° |
| 2026-05-07 20:10 | 48.35989 | 11.79334 | 1485 ft | 8 kts | 173° |
| 2026-05-07 20:10 | 48.35939 | 11.79345 | 1485 ft | 8 kts | 165° |
| 2026-05-07 20:10 | 48.35895 | 11.79375 | 1482 ft | 6 kts | 163° |
| 2026-05-07 20:10 | 48.35856 | 11.79384 | 1481 ft | 5 kts | 173° |
| 2026-05-07 20:11 | 48.35823 | 11.79390 | 1481 ft | 5 kts | 173° |
| 2026-05-07 20:11 | 48.35801 | 11.79374 | 1485 ft | 3 kts | 230° |
| 2026-05-07 20:11 | 48.35794 | 11.79332 | 1485 ft | 5 kts | 264° |
| 2026-05-07 20:11 | 48.35791 | 11.79290 | 1485 ft | 3 kts | 263° |
| 2026-05-07 20:12 | 48.35789 | 11.79261 | 1478 ft | 2 kts | 263° |
| 2026-05-07 20:12 | 48.35788 | 11.79248 | 1475 ft | 0 kts | 263° |